createdAt,value
2023-04-27T00:02:28.259Z,1.63
2023-04-27T00:04:57.309Z,1.80
2023-04-27T00:07:26.708Z,1.43
2023-04-27T00:09:55.029Z,1.50
2023-04-27T00:12:23.331Z,1.63
2023-04-27T00:14:53.032Z,1.53
2023-04-27T00:17:21.563Z,1.50
2023-04-27T00:19:49.836Z,1.60
2023-04-27T00:22:18.205Z,1.50
2023-04-27T00:24:46.535Z,1.50
2023-04-27T00:27:14.846Z,1.77
2023-04-27T00:29:43.235Z,2.13
2023-04-27T00:32:13.248Z,1.10
2023-04-27T00:34:41.553Z,1.60
2023-04-27T00:37:10.155Z,1.70
2023-04-27T00:39:38.571Z,1.30
2023-04-27T00:42:11.418Z,1.40
2023-04-27T00:44:39.998Z,1.20
2023-04-27T00:47:08.667Z,1.13
2023-04-27T00:49:38.908Z,1.70
2023-04-27T00:52:07.861Z,1.27
2023-04-27T00:54:36.369Z,1.40
2023-04-27T00:57:05.336Z,1.60
2023-04-27T00:59:33.691Z,1.43
2023-04-27T01:02:02.844Z,1.50
2023-04-27T01:04:32.491Z,1.20
2023-04-27T01:07:03.291Z,1.37
2023-04-27T01:09:31.713Z,1.60
2023-04-27T01:12:00.115Z,1.20
2023-04-27T01:14:28.359Z,1.33
2023-04-27T01:16:56.665Z,1.67
2023-04-27T01:19:25.196Z,1.93
2023-04-27T01:21:53.533Z,1.70
2023-04-27T01:24:23.233Z,2.50
2023-04-27T01:26:53.991Z,2.50
2023-04-27T01:29:22.669Z,2.60
2023-04-27T01:31:51.116Z,2.17
2023-04-27T01:34:19.372Z,2.07
2023-04-27T01:36:47.645Z,2.30
2023-04-27T01:39:16.489Z,1.87
2023-04-27T01:41:46.415Z,2.73
2023-04-27T01:44:14.622Z,2.30
2023-04-27T01:46:42.978Z,2.00
2023-04-27T01:49:11.504Z,2.20
2023-04-27T01:51:40.023Z,2.63
2023-04-27T01:54:08.337Z,2.60
2023-04-27T01:56:36.545Z,2.83
2023-04-27T01:59:06.245Z,2.57
2023-04-27T02:01:34.636Z,2.60
2023-04-27T02:04:03.191Z,2.60
2023-04-27T02:06:31.598Z,2.73
2023-04-27T02:08:59.981Z,2.80
2023-04-27T02:11:28.292Z,3.30
2023-04-27T02:13:56.573Z,2.87
2023-04-27T02:16:27.271Z,2.37
2023-04-27T02:18:55.513Z,3.80
2023-04-27T02:21:23.776Z,2.70
2023-04-27T02:23:52.058Z,3.30
2023-04-27T02:26:21.156Z,3.50
2023-04-27T02:28:50.280Z,3.50
2023-04-27T02:31:19.136Z,3.90
2023-04-27T02:33:48.919Z,4.33
2023-04-27T02:36:17.308Z,4.07
2023-04-27T02:38:45.604Z,3.33
2023-04-27T02:41:13.984Z,3.77
2023-04-27T02:43:42.222Z,4.00
2023-04-27T02:46:12.044Z,3.40
2023-04-27T02:48:40.334Z,3.77
2023-04-27T02:51:10.047Z,3.77
2023-04-27T02:53:38.281Z,3.40
2023-04-27T02:56:07.040Z,3.43
2023-04-27T02:58:35.319Z,3.93
2023-04-27T03:01:04.039Z,2.90
2023-04-27T03:03:32.431Z,3.47
2023-04-27T03:06:00.953Z,3.43
2023-04-27T03:08:30.597Z,3.83
2023-04-27T03:10:58.828Z,3.37
2023-04-27T03:13:28.135Z,3.53
2023-04-27T03:15:56.421Z,3.27
2023-04-27T03:18:24.843Z,3.37
2023-04-27T03:20:53.142Z,4.40
2023-04-27T03:23:21.389Z,3.47
2023-04-27T03:25:51.210Z,3.87
2023-04-27T03:28:19.453Z,3.87
2023-04-27T03:30:47.654Z,2.90
2023-04-27T03:33:15.878Z,3.80
2023-04-27T03:35:44.169Z,4.03
2023-04-27T03:38:12.373Z,3.50
2023-04-27T03:40:40.576Z,3.20
2023-04-27T03:43:10.418Z,3.30
2023-04-27T03:45:38.694Z,3.90
2023-04-27T03:48:07.765Z,3.97
2023-04-27T03:50:36.068Z,3.67
2023-04-27T03:53:04.553Z,3.00
2023-04-27T03:55:32.808Z,3.37
2023-04-27T03:58:01.095Z,3.63
2023-04-27T04:00:31.619Z,4.00
2023-04-27T04:02:59.910Z,3.20
2023-04-27T04:05:28.502Z,3.57
2023-04-27T04:07:56.951Z,3.43
2023-04-27T04:10:25.719Z,3.00
2023-04-27T04:12:54.276Z,3.67
2023-04-27T04:15:22.450Z,3.53
2023-04-27T04:17:52.598Z,4.10
2023-04-27T04:20:21.069Z,3.20
2023-04-27T04:22:49.333Z,3.10
2023-04-27T04:25:18.058Z,3.97
2023-04-27T04:27:46.340Z,3.80
2023-04-27T04:30:15.235Z,3.37
2023-04-27T04:32:45.133Z,3.37
2023-04-27T04:35:16.295Z,3.40
2023-04-27T04:37:44.648Z,3.63
2023-04-27T04:40:14.129Z,4.23
2023-04-27T04:42:42.600Z,4.60
2023-04-27T04:45:11.762Z,4.00
2023-04-27T04:47:40.673Z,3.40
2023-04-27T04:50:10.722Z,3.37
2023-04-27T04:52:40.594Z,3.23
2023-04-27T04:55:09.304Z,3.10
2023-04-27T04:57:37.695Z,3.47
2023-04-27T05:00:11.613Z,4.10
2023-04-27T05:02:40.203Z,3.33
2023-04-27T05:05:09.299Z,2.80
2023-04-27T05:07:37.731Z,4.13
2023-04-27T05:10:08.233Z,3.47
2023-04-27T05:12:36.543Z,3.50
2023-04-27T05:15:05.076Z,4.90
2023-04-27T05:17:33.480Z,4.90
2023-04-27T05:20:01.905Z,4.30
2023-04-27T05:22:30.183Z,4.97
2023-04-27T05:24:59.233Z,4.20
2023-04-27T05:27:30.210Z,3.97
2023-04-27T05:29:58.528Z,3.77
2023-04-27T05:32:26.961Z,3.60
2023-04-27T05:34:55.262Z,3.40
2023-04-27T05:37:23.679Z,3.50
2023-04-27T05:39:52.744Z,4.00
2023-04-27T05:42:21.046Z,5.03
2023-04-27T05:44:50.667Z,4.23
2023-04-27T05:47:18.876Z,4.60
2023-04-27T05:49:52.816Z,3.70
2023-04-27T05:52:21.321Z,4.00
2023-04-27T05:54:50.026Z,5.00
2023-04-27T05:57:18.380Z,4.70
2023-04-27T05:59:46.720Z,4.50
2023-04-27T06:02:16.757Z,3.80
2023-04-27T06:04:45.319Z,4.00
2023-04-27T06:07:16.179Z,4.47
2023-04-27T06:09:44.714Z,3.57
2023-04-27T06:12:13.041Z,4.70
2023-04-27T06:14:41.485Z,3.60
2023-04-27T06:17:09.768Z,4.20
2023-04-27T06:19:39.501Z,3.30
2023-04-27T06:22:07.818Z,3.50
2023-04-27T06:24:36.646Z,3.63
2023-04-27T06:27:05.139Z,3.60
2023-04-27T06:29:33.546Z,4.43
2023-04-27T06:32:01.987Z,3.30
2023-04-27T06:34:30.546Z,3.70
2023-04-27T06:37:00.173Z,4.33
2023-04-27T06:39:28.585Z,4.00
2023-04-27T06:41:57.048Z,3.30
2023-04-27T06:44:25.368Z,4.43
2023-04-27T06:46:53.883Z,3.70
2023-04-27T06:49:22.328Z,3.90
2023-04-27T06:51:50.859Z,3.47
2023-04-27T06:54:20.868Z,4.00
2023-04-27T06:56:49.113Z,3.33
2023-04-27T06:59:17.565Z,4.10
2023-04-27T07:01:46.536Z,3.73
2023-04-27T07:04:15.012Z,4.40
2023-04-27T07:06:43.592Z,3.90
2023-04-27T07:09:24.040Z,3.40
2023-04-27T07:11:57.437Z,3.60
2023-04-27T07:14:26.214Z,3.83
2023-04-27T07:16:54.739Z,3.50
2023-04-27T07:19:22.989Z,4.10
2023-04-27T07:21:51.999Z,3.50
2023-04-27T07:24:20.441Z,4.00
2023-04-27T07:26:49.334Z,3.20
2023-04-27T07:29:26.325Z,3.13
2023-04-27T07:31:55.803Z,3.27
2023-04-27T07:34:25.133Z,3.30
2023-04-27T07:36:54.563Z,3.73
2023-04-27T07:39:23.651Z,3.30
2023-04-27T07:41:51.869Z,3.97
2023-04-27T07:44:22.029Z,3.20
2023-04-27T07:46:50.257Z,3.00
2023-04-27T07:49:18.576Z,3.40
2023-04-27T07:51:47.044Z,3.20
2023-04-27T07:54:15.480Z,3.20
2023-04-27T07:56:44.281Z,3.77
2023-04-27T07:59:13.034Z,3.13
2023-04-27T08:01:45.768Z,3.00
2023-04-27T08:04:14.416Z,2.90
2023-04-27T08:06:47.044Z,3.40
2023-04-27T08:09:16.011Z,2.80
2023-04-27T08:11:44.565Z,3.27
2023-04-27T08:14:13.797Z,2.97
2023-04-27T08:16:44.762Z,3.57
2023-04-27T08:19:13.222Z,3.33
2023-04-27T08:21:41.683Z,2.67
2023-04-27T08:24:09.934Z,3.20
2023-04-27T08:26:38.373Z,2.77
2023-04-27T08:29:19.553Z,2.70
2023-04-27T08:31:57.120Z,2.43
2023-04-27T08:34:25.690Z,3.10
2023-04-27T08:36:54.171Z,2.80
2023-04-27T08:39:22.967Z,2.57
2023-04-27T08:41:51.764Z,2.77
2023-04-27T08:44:20.137Z,3.40
2023-04-27T08:46:48.943Z,3.37
2023-04-27T08:49:18.949Z,2.73
2023-04-27T08:51:47.464Z,2.13
2023-04-27T08:54:15.692Z,3.10
2023-04-27T08:56:44.154Z,2.93
2023-04-27T08:59:16.879Z,2.80
2023-04-27T09:01:47.100Z,3.20
2023-04-27T09:04:16.765Z,2.80
2023-04-27T09:06:46.890Z,3.00
2023-04-27T09:09:23.792Z,3.43
2023-04-27T09:11:52.470Z,3.10
2023-04-27T09:14:22.401Z,4.37
2023-04-27T09:16:57.818Z,2.77
2023-04-27T09:19:27.630Z,2.80
2023-04-27T09:22:07.448Z,2.90
2023-04-27T09:24:35.878Z,2.77
2023-04-27T09:27:05.093Z,2.77
2023-04-27T09:29:38.984Z,2.70
2023-04-27T09:32:17.919Z,3.37
2023-04-27T09:34:46.765Z,2.93
2023-04-27T09:37:16.902Z,2.77
2023-04-27T09:39:45.395Z,2.80
2023-04-27T09:42:14.265Z,2.97
2023-04-27T09:44:42.525Z,2.67
2023-04-27T09:47:12.383Z,2.80
2023-04-27T09:49:40.727Z,2.70
2023-04-27T09:52:08.978Z,3.57
2023-04-27T09:54:39.024Z,3.23
2023-04-27T09:57:18.965Z,3.10
2023-04-27T10:00:07.867Z,2.90
2023-04-27T10:02:53.189Z,2.67
2023-04-27T10:05:42.724Z,2.97
2023-04-27T10:08:12.164Z,3.10
2023-04-27T10:10:51.111Z,3.07
2023-04-27T10:13:24.093Z,3.03
2023-04-27T10:15:52.592Z,2.80
2023-04-27T10:18:28.898Z,3.20
2023-04-27T10:20:57.379Z,3.50
2023-04-27T10:23:26.664Z,3.30
2023-04-27T10:25:57.428Z,2.67
2023-04-27T10:28:25.642Z,2.87
2023-04-27T10:30:53.889Z,2.80
2023-04-27T10:33:24.354Z,2.70
2023-04-27T10:35:57.848Z,2.80
2023-04-27T10:38:30.351Z,3.07
2023-04-27T10:41:02.354Z,3.30
2023-04-27T10:43:31.962Z,2.90
2023-04-27T10:46:09.008Z,2.80
2023-04-27T10:48:37.354Z,2.67
2023-04-27T10:51:06.632Z,2.87
2023-04-27T10:53:38.128Z,2.77
2023-04-27T10:56:08.281Z,2.33
2023-04-27T10:58:48.280Z,2.70
2023-04-27T11:01:25.935Z,2.70
2023-04-27T11:03:57.293Z,2.70
2023-04-27T11:06:25.579Z,2.63
2023-04-27T11:08:53.874Z,2.67
2023-04-27T11:11:24.529Z,2.77
2023-04-27T11:13:53.458Z,2.70
2023-04-27T11:16:21.806Z,2.97
2023-04-27T11:18:50.066Z,2.80
2023-04-27T11:21:22.240Z,3.13
2023-04-27T11:23:50.658Z,3.47
2023-04-27T11:26:21.527Z,2.90
2023-04-27T11:29:05.298Z,3.10
2023-04-27T11:31:43.885Z,3.07
2023-04-27T11:34:19.324Z,2.97
2023-04-27T11:37:07.099Z,2.90
2023-04-27T11:39:41.704Z,2.80
2023-04-27T11:42:18.292Z,2.87
2023-04-27T11:44:54.365Z,2.80
2023-04-27T11:47:23.068Z,3.50
2023-04-27T11:49:52.704Z,3.10
2023-04-27T11:52:21.128Z,2.83
2023-04-27T11:54:50.873Z,3.10
2023-04-27T11:57:19.125Z,2.63
2023-04-27T11:59:47.536Z,2.87
2023-04-27T12:02:17.239Z,2.77
2023-04-27T12:04:45.895Z,2.67
2023-04-27T12:07:14.615Z,2.50
2023-04-27T12:09:43.512Z,3.00
2023-04-27T12:12:12.930Z,2.50
2023-04-27T12:14:41.559Z,2.77
2023-04-27T12:17:09.825Z,3.23
2023-04-27T12:19:39.497Z,3.30
2023-04-27T12:22:08.597Z,2.80
2023-04-27T12:24:37.518Z,2.83
2023-04-27T12:27:07.006Z,2.87
2023-04-27T12:29:35.336Z,2.77
2023-04-27T12:32:03.753Z,2.80
2023-04-27T12:34:32.010Z,2.80
2023-04-27T12:37:01.776Z,2.93
2023-04-27T12:39:30.318Z,3.27
2023-04-27T12:41:59.398Z,3.90
2023-04-27T12:44:28.042Z,2.93
2023-04-27T12:46:56.471Z,2.90
2023-04-27T12:49:24.723Z,3.27
2023-04-27T12:51:54.232Z,3.30
2023-04-27T12:54:23.994Z,3.20
2023-04-27T12:56:52.483Z,3.57
2023-04-27T12:59:20.758Z,3.00
2023-04-27T13:01:49.183Z,3.90
2023-04-27T13:04:22.098Z,3.10
2023-04-27T13:06:51.102Z,4.03
2023-04-27T13:09:19.367Z,3.60
2023-04-27T13:11:49.002Z,3.70
2023-04-27T13:14:17.357Z,3.40
2023-04-27T13:16:45.900Z,3.60
2023-04-27T13:19:14.373Z,3.43
2023-04-27T13:21:42.680Z,3.23
2023-04-27T13:24:10.950Z,3.60
2023-04-27T13:26:39.331Z,3.30
2023-04-27T13:29:09.184Z,4.07
2023-04-27T13:31:37.817Z,3.60
2023-04-27T13:34:06.228Z,3.63
2023-04-27T13:36:34.671Z,4.00
2023-04-27T13:39:02.920Z,3.40
2023-04-27T13:41:32.464Z,4.80
2023-04-27T13:44:00.805Z,4.80
2023-04-27T13:46:30.689Z,4.30
2023-04-27T13:48:59.008Z,4.43
2023-04-27T13:51:29.732Z,3.80
2023-04-27T13:53:58.098Z,5.10
2023-04-27T13:56:26.428Z,4.03
2023-04-27T13:58:54.746Z,3.90
2023-04-27T14:01:23.020Z,4.13
2023-04-27T14:04:17.483Z,4.90
2023-04-27T14:06:47.058Z,3.70
2023-04-27T14:09:15.688Z,3.13
2023-04-27T14:11:52.911Z,3.87
2023-04-27T14:14:24.664Z,3.67
2023-04-27T14:17:05.224Z,4.37
2023-04-27T14:19:34.962Z,3.70
2023-04-27T14:22:04.658Z,3.77
2023-04-27T14:24:32.927Z,3.50
2023-04-27T14:27:01.260Z,3.67
2023-04-27T14:29:29.621Z,3.70
2023-04-27T14:31:57.965Z,3.00
2023-04-27T14:34:26.264Z,4.40
2023-04-27T14:36:56.052Z,3.63
2023-04-27T14:39:24.559Z,3.50
2023-04-27T14:41:53.021Z,3.77
2023-04-27T14:44:21.252Z,3.37
2023-04-27T14:46:49.533Z,3.43
2023-04-27T14:49:17.986Z,3.77
2023-04-27T14:51:46.351Z,3.17
2023-04-27T14:54:16.155Z,3.20
2023-04-27T14:56:44.511Z,3.43
2023-04-27T14:59:12.956Z,3.07
2023-04-27T15:01:41.392Z,4.13
2023-04-27T15:04:11.969Z,3.40
2023-04-27T15:06:40.453Z,3.37
2023-04-27T15:09:09.064Z,3.30
2023-04-27T15:11:39.038Z,3.30
2023-04-27T15:14:08.748Z,3.80
2023-04-27T15:16:37.586Z,3.50
2023-04-27T15:19:05.858Z,4.20
2023-04-27T15:21:37.698Z,3.70
2023-04-27T15:24:06.320Z,4.40
2023-04-27T15:26:34.643Z,3.53
2023-04-27T15:29:04.652Z,3.43
2023-04-27T15:31:33.017Z,3.53
2023-04-27T15:34:01.250Z,3.17
2023-04-27T15:36:29.848Z,3.87
2023-04-27T15:38:59.420Z,3.50
2023-04-27T15:41:27.808Z,3.53
2023-04-27T15:43:56.312Z,4.07
2023-04-27T15:46:26.168Z,4.17
2023-04-27T15:48:54.440Z,4.10
2023-04-27T15:51:22.759Z,3.10
2023-04-27T15:53:50.961Z,3.90
2023-04-27T15:56:19.283Z,3.33
2023-04-27T15:58:47.742Z,6.77
2023-04-27T16:01:16.157Z,4.60
2023-04-27T16:03:46.046Z,3.93
2023-04-27T16:06:14.783Z,4.67
2023-04-27T16:08:43.304Z,4.73
2023-04-27T16:11:11.642Z,4.77
2023-04-27T16:13:39.942Z,4.70
2023-04-27T16:16:09.747Z,4.50
2023-04-27T16:18:38.807Z,4.00
2023-04-27T16:21:08.688Z,4.33
2023-04-27T16:23:36.930Z,4.33
2023-04-27T16:26:05.179Z,4.10
2023-04-27T16:28:33.936Z,4.63
2023-04-27T16:31:02.231Z,4.83
2023-04-27T16:33:30.771Z,4.27
2023-04-27T16:35:59.007Z,4.87
2023-04-27T16:38:28.902Z,4.50
2023-04-27T16:40:57.397Z,3.40
2023-04-27T16:43:25.949Z,4.37
2023-04-27T16:45:54.223Z,3.63
2023-04-27T16:48:22.452Z,3.70
2023-04-27T16:50:52.217Z,4.10
2023-04-27T16:53:22.052Z,4.20
2023-04-27T16:55:51.833Z,4.27
2023-04-27T16:58:20.235Z,4.20
2023-04-27T17:00:48.761Z,4.00
2023-04-27T17:03:17.187Z,4.23
2023-04-27T17:05:45.505Z,4.17
2023-04-27T17:08:13.778Z,4.50
2023-04-27T17:10:42.197Z,4.90
2023-04-27T17:13:12.625Z,4.30
2023-04-27T17:15:41.179Z,4.97
2023-04-27T17:18:09.956Z,6.13
2023-04-27T17:20:39.785Z,5.97
2023-04-27T17:23:09.967Z,5.70
2023-04-27T17:25:38.333Z,5.37
2023-04-27T17:28:06.856Z,5.00
2023-04-27T17:30:36.759Z,5.47
2023-04-27T17:33:05.199Z,4.43
2023-04-27T17:35:33.495Z,4.97
2023-04-27T17:38:01.891Z,5.57
2023-04-27T17:40:30.197Z,5.10
2023-04-27T17:42:58.641Z,4.93
2023-04-27T17:45:28.798Z,5.10
2023-04-27T17:47:58.659Z,4.93
2023-04-27T17:50:27.209Z,4.33
2023-04-27T17:52:55.507Z,4.70
2023-04-27T17:55:24.169Z,4.97
2023-04-27T17:57:52.682Z,6.20
2023-04-27T18:00:21.484Z,8.87
2023-04-27T18:02:50.070Z,9.00
2023-04-27T18:05:20.042Z,7.30
2023-04-27T18:07:50.131Z,5.43
2023-04-27T18:10:20.103Z,5.10
2023-04-27T18:12:48.329Z,4.30
2023-04-27T18:15:16.716Z,4.63
2023-04-27T18:17:45.328Z,4.90
2023-04-27T18:20:15.671Z,4.03
2023-04-27T18:22:45.368Z,5.10
2023-04-27T18:25:13.910Z,4.30
2023-04-27T18:27:44.088Z,5.00
2023-04-27T18:30:12.964Z,4.30
2023-04-27T18:32:41.182Z,4.90
2023-04-27T18:35:12.749Z,5.50
2023-04-27T18:37:41.005Z,4.83
2023-04-27T18:40:11.800Z,5.90
2023-04-27T18:42:40.201Z,4.80
2023-04-27T18:45:09.863Z,7.17
2023-04-27T18:47:38.124Z,6.33
2023-04-27T18:50:07.955Z,5.30
2023-04-27T18:52:36.220Z,4.83
2023-04-27T18:55:04.995Z,4.63
2023-04-27T18:57:35.037Z,6.30
2023-04-27T19:00:04.685Z,5.63
2023-04-27T19:02:33.107Z,5.17
2023-04-27T19:05:11.400Z,5.40
2023-04-27T19:07:41.245Z,4.50
2023-04-27T19:10:11.469Z,4.80
2023-04-27T19:12:41.385Z,4.60
2023-04-27T19:15:10.366Z,4.30
2023-04-27T19:17:38.726Z,5.37
2023-04-27T19:20:08.264Z,4.50
2023-04-27T19:22:37.148Z,5.40
2023-04-27T19:25:06.137Z,6.00
2023-04-27T19:27:34.526Z,5.53
2023-04-27T19:30:04.535Z,5.17
2023-04-27T19:32:34.387Z,4.90
2023-04-27T19:35:02.880Z,5.10
2023-04-27T19:37:31.372Z,5.10
2023-04-27T19:40:00.297Z,5.33
2023-04-27T19:42:28.740Z,5.37
2023-04-27T19:44:57.056Z,5.50
2023-04-27T19:47:27.001Z,5.67
2023-04-27T19:49:55.286Z,5.23
2023-04-27T19:52:25.137Z,4.90
2023-04-27T19:54:53.785Z,4.80
2023-04-27T19:57:22.264Z,5.77
2023-04-27T19:59:50.622Z,5.87
2023-04-27T20:02:19.038Z,4.67
2023-04-27T20:04:48.993Z,11.90
2023-04-27T20:07:17.701Z,9.00
2023-04-27T20:09:46.124Z,16.37
2023-04-27T20:12:34.804Z,12.70
2023-04-27T20:15:02.707Z,19.50
2023-04-27T20:17:31.453Z,21.37
2023-04-27T20:20:01.459Z,10.13
2023-04-27T20:22:29.747Z,6.90
2023-04-27T20:25:00.322Z,8.97
2023-04-27T20:27:28.565Z,11.70
2023-04-27T20:29:57.023Z,21.53
2023-04-27T20:32:25.305Z,8.90
2023-04-27T20:34:53.552Z,44.27
2023-04-27T20:37:23.358Z,14.53
2023-04-27T20:39:51.997Z,31.20
2023-04-27T20:42:20.883Z,13.63
2023-04-27T20:44:51.308Z,5.33
2023-04-27T20:47:19.670Z,6.43
2023-04-27T20:49:48.087Z,5.70
2023-04-27T20:52:16.503Z,5.30
2023-04-27T20:54:46.192Z,4.27
2023-04-27T20:57:14.618Z,5.33
2023-04-27T20:59:43.006Z,3.67
2023-04-27T21:02:11.245Z,4.03
2023-04-27T21:04:39.846Z,4.40
2023-04-27T21:07:08.260Z,3.70
2023-04-27T21:09:38.595Z,3.40
2023-04-27T21:12:08.821Z,4.60
2023-04-27T21:14:37.611Z,4.40
2023-04-27T21:17:06.202Z,3.67
2023-04-27T21:19:34.540Z,3.97
2023-04-27T21:22:02.880Z,3.90
2023-04-27T21:24:31.107Z,3.87
2023-04-27T21:26:59.588Z,3.53
2023-04-27T21:29:29.223Z,3.50
2023-04-27T21:31:57.581Z,3.27
2023-04-27T21:34:25.811Z,4.60
2023-04-27T21:36:54.161Z,3.97
2023-04-27T21:39:22.417Z,4.20
2023-04-27T21:41:50.768Z,3.37
2023-04-27T21:44:19.400Z,3.43
2023-04-27T21:46:49.266Z,3.37
2023-04-27T21:49:18.205Z,3.83
2023-04-27T21:51:46.693Z,3.73
2023-04-27T21:54:15.253Z,3.50
2023-04-27T21:56:43.929Z,3.97
2023-04-27T21:59:12.349Z,3.30
2023-04-27T22:01:41.475Z,3.33
2023-04-27T22:04:11.504Z,3.37
2023-04-27T22:06:40.938Z,3.60
2023-04-27T22:09:09.571Z,3.63
2023-04-27T22:11:37.950Z,3.50
2023-04-27T22:14:06.528Z,4.00
2023-04-27T22:16:35.102Z,3.40
2023-04-27T22:19:03.937Z,3.87
2023-04-27T22:21:34.544Z,4.00
2023-04-27T22:24:03.035Z,2.93
2023-04-27T22:26:31.450Z,3.43
2023-04-27T22:28:59.903Z,3.60
2023-04-27T22:31:28.437Z,3.67
2023-04-27T22:33:57.067Z,3.10
2023-04-27T22:36:25.641Z,3.30
2023-04-27T22:38:55.694Z,3.33
2023-04-27T22:41:24.360Z,2.70
2023-04-27T22:43:52.666Z,2.83
2023-04-27T22:46:23.104Z,3.73
2023-04-27T22:48:52.893Z,3.20
2023-04-27T22:51:21.838Z,2.83
2023-04-27T22:53:50.228Z,2.73
2023-04-27T22:56:19.900Z,2.90
2023-04-27T22:58:48.327Z,3.60
2023-04-27T23:01:16.680Z,3.13
2023-04-27T23:03:45.112Z,3.20
2023-04-27T23:06:16.745Z,3.30
2023-04-27T23:08:47.191Z,2.90
2023-04-27T23:11:19.053Z,3.50
2023-04-27T23:13:50.685Z,2.80
2023-04-27T23:16:19.004Z,2.77
2023-04-27T23:18:47.402Z,2.57
2023-04-27T23:21:15.682Z,2.93
2023-04-27T23:23:44.176Z,3.10
2023-04-27T23:26:16.428Z,2.80
2023-04-27T23:28:45.021Z,2.83
2023-04-27T23:31:14.922Z,3.43
2023-04-27T23:33:43.255Z,3.07
2023-04-27T23:36:11.500Z,2.70
2023-04-27T23:38:39.918Z,2.40
2023-04-27T23:41:08.137Z,2.43
2023-04-27T23:43:36.387Z,2.70
2023-04-27T23:46:05.849Z,3.00
2023-04-27T23:48:36.627Z,3.00
2023-04-27T23:51:06.106Z,3.00
2023-04-27T23:53:34.472Z,2.80
2023-04-27T23:56:02.755Z,2.60
2023-04-27T23:58:31.078Z,2.70
